createdAt,value
2023-05-04T00:00:47.564Z,78.87
2023-05-04T00:03:34.867Z,79.10
2023-05-04T00:06:22.310Z,79.56
2023-05-04T00:09:11.353Z,79.37
2023-05-04T00:11:58.546Z,79.60
2023-05-04T00:14:45.781Z,80.18
2023-05-04T00:17:33.212Z,79.90
2023-05-04T00:20:20.559Z,80.22
2023-05-04T00:23:08.338Z,80.57
2023-05-04T00:25:55.853Z,80.98
2023-05-04T00:28:43.052Z,81.29
2023-05-04T00:31:30.275Z,81.83
2023-05-04T00:34:17.502Z,81.77
2023-05-04T00:37:05.000Z,81.82
2023-05-04T00:39:52.230Z,81.94
2023-05-04T00:42:39.443Z,82.26
2023-05-04T00:45:26.820Z,82.27
2023-05-04T00:48:14.325Z,82.79
2023-05-04T00:51:02.211Z,82.99
2023-05-04T00:53:50.019Z,83.29
2023-05-04T00:56:43.497Z,83.72
2023-05-04T00:59:30.730Z,83.69
2023-05-04T01:02:18.080Z,83.95
2023-05-04T01:05:06.651Z,84.60
2023-05-04T01:08:05.178Z,84.31
2023-05-04T01:11:09.346Z,84.59
2023-05-04T01:13:57.101Z,84.87
2023-05-04T01:16:44.421Z,85.25
2023-05-04T01:19:32.210Z,85.13
2023-05-04T01:22:19.811Z,85.30
2023-05-04T01:25:08.260Z,85.82
2023-05-04T01:28:04.428Z,86.16
2023-05-04T01:31:00.817Z,86.33
2023-05-04T01:33:51.020Z,87.04
2023-05-04T01:36:40.091Z,86.76
2023-05-04T01:39:27.302Z,87.25
2023-05-04T01:42:14.583Z,87.27
2023-05-04T01:45:02.147Z,87.71
2023-05-04T01:47:50.227Z,87.96
2023-05-04T01:50:37.470Z,88.13
2023-05-04T01:53:24.660Z,88.28
2023-05-04T01:56:11.956Z,88.42
2023-05-04T01:58:59.276Z,89.13
2023-05-04T02:01:46.586Z,89.36
2023-05-04T02:04:34.293Z,89.56
2023-05-04T02:07:22.072Z,89.92
2023-05-04T02:10:09.822Z,90.51
2023-05-04T02:12:58.337Z,90.50
2023-05-04T02:15:45.694Z,90.63
2023-05-04T02:18:32.956Z,90.53
2023-05-04T02:21:20.176Z,90.92
2023-05-04T02:24:07.724Z,91.03
2023-05-04T02:26:55.020Z,91.68
2023-05-04T02:29:42.326Z,91.69
2023-05-04T02:32:29.589Z,92.30
2023-05-04T02:35:16.865Z,92.17
2023-05-04T02:38:04.067Z,92.51
2023-05-04T02:40:51.306Z,92.67
2023-05-04T02:43:38.502Z,93.23
2023-05-04T02:46:27.038Z,93.12
2023-05-04T02:49:14.395Z,94.10
2023-05-04T02:52:01.694Z,94.45
2023-05-04T02:54:50.129Z,94.62
2023-05-04T02:57:39.048Z,94.67
2023-05-04T03:00:26.493Z,94.96
2023-05-04T03:03:13.805Z,95.35
2023-05-04T03:06:01.357Z,95.77
2023-05-04T03:08:48.685Z,96.67
2023-05-04T03:11:36.054Z,97.17
2023-05-04T03:14:23.305Z,97.44
2023-05-04T03:17:10.494Z,97.68
2023-05-04T03:19:57.717Z,97.93
2023-05-04T03:22:44.950Z,97.78
2023-05-04T03:25:32.408Z,97.98
2023-05-04T03:28:19.608Z,97.86
2023-05-04T03:31:06.885Z,98.50
2023-05-04T03:33:54.133Z,98.36
2023-05-04T03:36:41.500Z,98.60
2023-05-04T03:39:28.738Z,98.60
2023-05-04T03:42:16.271Z,98.50
2023-05-04T03:45:04.318Z,98.63
2023-05-04T03:47:51.800Z,98.64
2023-05-04T03:50:39.066Z,98.98
2023-05-04T03:53:26.444Z,98.39
2023-05-04T03:56:13.634Z,98.78
2023-05-04T03:59:01.666Z,98.87
2023-05-04T04:01:48.882Z,98.88
2023-05-04T04:04:36.176Z,98.84
2023-05-04T04:07:23.734Z,98.83
2023-05-04T04:10:11.388Z,99.16
2023-05-04T04:12:58.647Z,99.26
2023-05-04T04:15:46.901Z,99.43
2023-05-04T04:18:34.189Z,99.16
2023-05-04T04:21:21.549Z,99.41
2023-05-04T04:24:08.847Z,99.85
2023-05-04T04:26:56.317Z,99.97
2023-05-04T04:29:44.086Z,100.00
2023-05-04T04:32:32.440Z,100.00
2023-05-04T04:35:19.742Z,100.00
2023-05-04T04:38:07.337Z,100.00
2023-05-04T04:40:54.539Z,100.00
2023-05-04T04:43:41.773Z,100.00
2023-05-04T04:46:29.028Z,100.00
2023-05-04T04:49:18.095Z,100.00
2023-05-04T04:52:06.153Z,100.00
2023-05-04T04:54:53.410Z,100.00
2023-05-04T04:57:40.661Z,100.00
2023-05-04T05:00:27.915Z,100.00
2023-05-04T05:03:15.251Z,100.00
2023-05-04T05:06:02.879Z,100.00
2023-05-04T05:08:50.029Z,100.00
2023-05-04T05:11:37.237Z,100.00
2023-05-04T05:14:24.484Z,100.00
2023-05-04T05:17:12.496Z,100.00
2023-05-04T05:19:59.719Z,100.00
2023-05-04T05:22:47.008Z,100.00
2023-05-04T05:25:39.179Z,100.00
2023-05-04T05:28:26.572Z,100.00
2023-05-04T05:31:14.088Z,100.00
2023-05-04T05:34:01.709Z,100.00
2023-05-04T05:36:49.318Z,100.00
2023-05-04T05:39:37.415Z,100.00
2023-05-04T05:42:24.755Z,100.00
2023-05-04T05:45:12.003Z,100.00
2023-05-04T05:47:59.201Z,100.00
2023-05-04T05:50:46.760Z,100.00
2023-05-04T05:53:33.956Z,100.00
2023-05-04T05:56:22.586Z,100.00
2023-05-04T05:59:09.796Z,100.00
2023-05-04T06:01:57.008Z,100.00
2023-05-04T06:04:47.455Z,100.00
2023-05-04T06:07:34.765Z,99.82
2023-05-04T06:10:22.170Z,99.92
2023-05-04T06:13:17.757Z,99.75
2023-05-04T06:16:05.320Z,99.79
2023-05-04T06:18:52.574Z,99.26
2023-05-04T06:21:39.794Z,98.86
2023-05-04T06:24:27.372Z,98.38
2023-05-04T06:27:14.633Z,97.54
2023-05-04T06:30:02.041Z,95.85
2023-05-04T06:32:49.295Z,95.06
2023-05-04T06:35:36.645Z,93.43
2023-05-04T06:38:23.877Z,93.19
2023-05-04T06:41:11.331Z,90.80
2023-05-04T06:44:00.224Z,89.80
2023-05-04T06:46:47.489Z,89.19
2023-05-04T06:49:35.611Z,89.19
2023-05-04T06:52:22.892Z,87.49
2023-05-04T06:55:10.192Z,86.85
2023-05-04T06:57:57.824Z,86.29
2023-05-04T07:00:45.052Z,86.01
2023-05-04T07:03:32.796Z,85.76
2023-05-04T07:06:21.327Z,86.39
2023-05-04T07:09:08.695Z,86.87
2023-05-04T07:11:55.931Z,87.45
2023-05-04T07:14:43.182Z,86.35
2023-05-04T07:17:32.550Z,85.55
2023-05-04T07:20:24.294Z,85.09
2023-05-04T07:23:12.602Z,85.29
2023-05-04T07:26:00.175Z,84.77
2023-05-04T07:28:47.557Z,83.82
2023-05-04T07:31:35.278Z,83.18
2023-05-04T07:34:30.186Z,83.47
2023-05-04T07:37:25.372Z,83.99
2023-05-04T07:40:14.933Z,83.88
2023-05-04T07:43:02.142Z,83.99
2023-05-04T07:45:49.614Z,84.53
2023-05-04T07:48:36.923Z,84.53
2023-05-04T07:51:24.205Z,84.62
2023-05-04T07:54:11.506Z,84.83
2023-05-04T07:56:58.694Z,84.10
2023-05-04T07:59:45.931Z,83.56
2023-05-04T08:02:33.292Z,82.42
2023-05-04T08:05:20.639Z,82.25
2023-05-04T08:08:09.430Z,81.61
2023-05-04T08:11:07.985Z,81.75
2023-05-04T08:14:03.988Z,81.91
2023-05-04T08:16:51.216Z,82.01
2023-05-04T08:19:38.405Z,82.86
2023-05-04T08:22:25.887Z,82.41
2023-05-04T08:25:13.342Z,82.39
2023-05-04T08:28:00.725Z,81.74
2023-05-04T08:30:47.939Z,82.33
2023-05-04T08:33:35.172Z,83.01
2023-05-04T08:36:22.414Z,83.04
2023-05-04T08:39:10.127Z,82.53
2023-05-04T08:41:57.504Z,82.41
2023-05-04T08:44:44.768Z,81.19
2023-05-04T08:47:32.075Z,81.78
2023-05-04T08:50:19.555Z,81.67
2023-05-04T08:53:12.079Z,81.07
2023-05-04T08:56:04.687Z,80.59
2023-05-04T08:58:52.942Z,80.41
2023-05-04T09:01:42.237Z,79.49
2023-05-04T09:04:31.400Z,78.35
2023-05-04T09:07:20.696Z,77.54
2023-05-04T09:10:09.016Z,76.59
2023-05-04T09:12:56.437Z,76.34
2023-05-04T09:15:58.211Z,75.35
2023-05-04T09:18:46.144Z,74.12
2023-05-04T09:21:33.514Z,74.56
2023-05-04T09:24:30.880Z,75.58
2023-05-04T09:27:18.467Z,75.74
2023-05-04T09:30:07.163Z,74.63
2023-05-04T09:32:54.487Z,73.68
2023-05-04T09:35:44.683Z,74.42
2023-05-04T09:38:32.806Z,74.05
2023-05-04T09:41:32.024Z,74.56
2023-05-04T09:44:24.506Z,73.87
2023-05-04T09:47:11.930Z,72.85
2023-05-04T09:49:59.669Z,70.92
2023-05-04T09:52:47.764Z,69.53
2023-05-04T09:55:35.070Z,69.48
2023-05-04T09:58:24.021Z,69.00
2023-05-04T10:14:35.853Z,68.89
2023-05-04T10:17:41.981Z,68.13
2023-05-04T10:21:01.269Z,67.37
2023-05-04T10:24:15.999Z,66.72
2023-05-04T10:27:12.265Z,65.96
2023-05-04T10:30:01.681Z,66.58
2023-05-04T10:32:59.106Z,65.89
2023-05-04T10:35:55.949Z,66.12
2023-05-04T10:38:43.258Z,65.83
2023-05-04T10:41:30.557Z,65.44
2023-05-04T10:44:17.820Z,64.85
2023-05-04T10:47:08.095Z,65.20
2023-05-04T10:50:11.372Z,64.08
2023-05-04T10:53:00.031Z,63.67
2023-05-04T10:55:49.004Z,61.91
2023-05-04T10:58:36.369Z,62.48
2023-05-04T11:01:24.250Z,61.59
2023-05-04T11:04:22.683Z,61.37
2023-05-04T11:07:10.033Z,62.39
2023-05-04T11:09:57.508Z,61.71
2023-05-04T11:12:44.803Z,59.74
2023-05-04T11:15:33.109Z,60.37
2023-05-04T11:18:34.579Z,60.26
2023-05-04T11:21:26.371Z,60.28
2023-05-04T11:24:13.914Z,60.11
2023-05-04T11:27:01.434Z,60.00
2023-05-04T11:30:04.706Z,60.27
2023-05-04T11:32:51.989Z,60.18
2023-05-04T11:35:40.123Z,58.85
2023-05-04T11:38:27.682Z,59.15
2023-05-04T11:41:15.196Z,58.05
2023-05-04T11:44:03.682Z,56.88
2023-05-04T11:46:51.983Z,57.23
2023-05-04T11:49:39.574Z,56.50
2023-05-04T11:52:27.769Z,57.44
2023-05-04T11:55:32.258Z,57.55
2023-05-04T11:58:26.116Z,57.75
2023-05-04T12:01:13.813Z,58.02
2023-05-04T12:04:01.389Z,58.18
2023-05-04T12:06:49.790Z,58.89
2023-05-04T12:09:48.286Z,59.27
2023-05-04T12:12:36.705Z,58.91
2023-05-04T12:15:37.532Z,58.22
2023-05-04T12:18:29.856Z,58.00
2023-05-04T12:21:23.937Z,57.82
2023-05-04T12:24:11.173Z,58.09
2023-05-04T12:26:58.415Z,58.99
2023-05-04T12:29:45.643Z,58.97
2023-05-04T12:32:32.942Z,58.82
2023-05-04T12:35:20.318Z,58.87
2023-05-04T12:38:07.566Z,58.47
2023-05-04T12:40:56.321Z,59.24
2023-05-04T12:43:43.646Z,59.14
2023-05-04T12:46:31.149Z,58.26
2023-05-04T12:49:18.548Z,58.86
2023-05-04T12:52:06.194Z,59.24
2023-05-04T12:54:53.464Z,58.86
2023-05-04T12:57:45.142Z,59.50
2023-05-04T13:00:36.541Z,59.95
2023-05-04T13:03:24.313Z,59.73
2023-05-04T13:06:11.759Z,59.22
2023-05-04T13:09:01.863Z,59.45
2023-05-04T13:11:49.983Z,58.92
2023-05-04T13:14:39.953Z,57.96
2023-05-04T13:17:29.892Z,58.09
2023-05-04T13:20:17.299Z,57.76
2023-05-04T13:23:04.582Z,58.37
2023-05-04T13:25:52.481Z,58.32
2023-05-04T13:28:39.851Z,58.18
2023-05-04T13:31:27.168Z,58.22
2023-05-04T13:34:14.452Z,58.32
2023-05-04T13:37:01.669Z,57.12
2023-05-04T13:39:49.079Z,56.80
2023-05-04T13:42:37.404Z,57.25
2023-05-04T13:45:25.219Z,56.74
2023-05-04T13:48:12.803Z,56.82
2023-05-04T13:51:00.022Z,56.56
2023-05-04T13:53:47.214Z,57.28
2023-05-04T13:56:34.476Z,57.12
2023-05-04T13:59:21.684Z,57.52
2023-05-04T14:02:08.940Z,57.82
2023-05-04T14:04:56.225Z,57.84
2023-05-04T14:07:43.489Z,57.79
2023-05-04T14:10:30.703Z,57.10
2023-05-04T14:13:18.695Z,57.88
2023-05-04T14:16:06.279Z,57.19
2023-05-04T14:18:53.542Z,57.36
2023-05-04T14:21:40.757Z,58.11
2023-05-04T14:24:28.045Z,57.54
2023-05-04T14:27:15.301Z,57.21
2023-05-04T14:30:06.359Z,57.50
2023-05-04T14:32:55.670Z,57.39
2023-05-04T14:35:45.105Z,58.92
2023-05-04T14:38:35.543Z,58.84
2023-05-04T14:41:22.789Z,59.44
2023-05-04T14:44:10.174Z,60.18
2023-05-04T14:46:57.554Z,59.99
2023-05-04T14:49:47.848Z,59.57
2023-05-04T14:52:35.123Z,59.46
2023-05-04T14:55:22.513Z,59.34
2023-05-04T14:58:10.252Z,59.58
2023-05-04T15:00:57.714Z,59.14
2023-05-04T15:03:45.749Z,59.19
2023-05-04T15:06:34.199Z,59.36
2023-05-04T15:09:21.475Z,59.70
2023-05-04T15:12:08.917Z,60.17
2023-05-04T15:14:56.128Z,60.37
2023-05-04T15:17:43.484Z,60.50
2023-05-04T15:20:30.740Z,61.16
2023-05-04T15:23:18.032Z,60.89
2023-05-04T15:26:05.302Z,61.44
2023-05-04T15:28:53.985Z,61.53
2023-05-04T15:31:41.798Z,61.94
2023-05-04T15:34:29.080Z,62.62
2023-05-04T15:37:16.309Z,62.26
2023-05-04T15:40:05.049Z,62.20
2023-05-04T15:42:53.196Z,63.03
2023-05-04T15:45:40.398Z,62.49
2023-05-04T15:48:30.724Z,63.01
2023-05-04T15:51:19.054Z,62.84
2023-05-04T15:54:06.365Z,63.15
2023-05-04T15:56:53.614Z,62.88
2023-05-04T15:59:41.035Z,63.28
2023-05-04T16:02:28.576Z,63.37
2023-05-04T16:05:15.869Z,63.27
2023-05-04T16:08:03.321Z,63.64
2023-05-04T16:10:52.247Z,63.81
2023-05-04T16:13:39.494Z,64.08
2023-05-04T16:16:26.859Z,64.55
2023-05-04T16:19:14.101Z,64.87
2023-05-04T16:22:01.543Z,65.15
2023-05-04T16:24:48.816Z,65.71
2023-05-04T16:27:36.052Z,65.64
2023-05-04T16:30:26.391Z,65.71
2023-05-04T16:33:13.766Z,65.41
2023-05-04T16:36:01.100Z,65.60
2023-05-04T16:38:48.633Z,66.02
2023-05-04T16:41:36.736Z,66.34
2023-05-04T16:44:24.557Z,66.75
2023-05-04T16:47:11.861Z,67.39
2023-05-04T16:49:59.205Z,67.32
2023-05-04T16:52:46.965Z,66.97
2023-05-04T16:55:34.245Z,67.39
2023-05-04T16:58:21.491Z,67.86
2023-05-04T17:01:10.958Z,67.72
2023-05-04T17:03:58.918Z,68.21
2023-05-04T17:06:46.302Z,68.61
2023-05-04T17:09:33.541Z,69.22
2023-05-04T17:12:22.137Z,69.18
2023-05-04T17:15:11.139Z,69.44
2023-05-04T17:17:58.555Z,69.84
2023-05-04T17:20:45.794Z,69.72
2023-05-04T17:23:33.043Z,69.98
2023-05-04T17:26:20.373Z,70.84
2023-05-04T17:29:07.912Z,71.21
2023-05-04T17:31:55.171Z,71.25
2023-05-04T17:34:42.397Z,71.47
2023-05-04T17:37:29.624Z,72.19
2023-05-04T17:40:16.967Z,72.19
2023-05-04T17:43:04.197Z,72.31
2023-05-04T17:45:53.103Z,72.38
2023-05-04T17:48:42.481Z,72.41
2023-05-04T17:51:29.727Z,72.43
2023-05-04T17:54:17.375Z,72.96
2023-05-04T17:57:04.785Z,73.53
2023-05-04T17:59:52.051Z,73.59
2023-05-04T18:02:39.322Z,73.82
2023-05-04T18:05:26.608Z,73.44
2023-05-04T18:08:14.347Z,73.76
2023-05-04T18:11:01.607Z,74.14
2023-05-04T18:13:48.944Z,74.00
2023-05-04T18:16:37.916Z,74.40
2023-05-04T18:19:26.904Z,74.50
2023-05-04T18:22:14.193Z,74.91
2023-05-04T18:25:02.254Z,74.93
2023-05-04T18:27:49.468Z,75.08
2023-05-04T18:30:36.772Z,75.44
2023-05-04T18:33:24.038Z,75.68
2023-05-04T18:36:11.379Z,76.21
2023-05-04T18:39:01.018Z,75.97
2023-05-04T18:41:48.242Z,75.99
2023-05-04T18:44:35.557Z,76.24
2023-05-04T18:47:23.019Z,76.35
2023-05-04T18:50:11.016Z,77.02
2023-05-04T18:52:58.329Z,77.40
2023-05-04T18:55:45.565Z,77.66
2023-05-04T18:58:33.297Z,78.46
2023-05-04T19:01:22.127Z,79.64
2023-05-04T19:04:09.495Z,80.47
2023-05-04T19:06:58.083Z,81.58
2023-05-04T19:09:48.016Z,82.61
2023-05-04T19:12:35.282Z,82.90
2023-05-04T19:15:23.398Z,83.17
2023-05-04T19:18:10.909Z,84.02
2023-05-04T19:20:58.495Z,85.25
2023-05-04T19:23:46.280Z,87.13
2023-05-04T19:26:33.585Z,90.21
2023-05-04T19:29:20.809Z,91.66
2023-05-04T19:32:19.821Z,93.30
2023-05-04T19:35:11.785Z,93.92
2023-05-04T19:37:59.627Z,94.33
2023-05-04T19:40:47.563Z,95.25
2023-05-04T19:43:35.623Z,96.07
2023-05-04T19:46:23.426Z,96.90
2023-05-04T19:49:12.316Z,97.99
2023-05-04T19:51:59.568Z,97.96
2023-05-04T19:54:48.734Z,98.59
2023-05-04T19:57:36.584Z,99.24
2023-05-04T20:00:23.900Z,99.66
2023-05-04T20:03:11.284Z,99.72
2023-05-04T20:05:58.796Z,100.00
2023-05-04T20:08:46.105Z,99.82
2023-05-04T20:11:34.019Z,100.00
2023-05-04T20:14:21.290Z,100.00
2023-05-04T20:17:08.662Z,100.00
2023-05-04T20:19:56.131Z,100.00
2023-05-04T20:22:43.459Z,100.00
2023-05-04T20:25:30.729Z,100.00
2023-05-04T20:28:18.146Z,100.00
2023-05-04T20:31:06.043Z,100.00
2023-05-04T20:33:53.314Z,100.00
2023-05-04T20:36:40.552Z,100.00
2023-05-04T20:39:28.347Z,100.00
2023-05-04T20:42:15.793Z,100.00
2023-05-04T20:45:03.154Z,100.00
2023-05-04T20:47:51.064Z,100.00
2023-05-04T20:50:40.377Z,100.00
2023-05-04T20:53:30.745Z,100.00
2023-05-04T20:56:18.061Z,100.00
2023-05-04T20:59:05.759Z,100.00
2023-05-04T21:01:53.121Z,100.00
2023-05-04T21:04:42.020Z,100.00
2023-05-04T21:07:29.284Z,100.00
2023-05-04T21:10:16.563Z,100.00
2023-05-04T21:13:03.879Z,100.00
2023-05-04T21:15:51.841Z,100.00
2023-05-04T21:18:40.138Z,100.00
2023-05-04T21:21:28.218Z,100.00
2023-05-04T21:24:16.703Z,100.00
2023-05-04T21:27:04.690Z,100.00
2023-05-04T21:29:52.071Z,100.00
2023-05-04T21:32:39.371Z,100.00
2023-05-04T21:35:31.142Z,100.00
2023-05-04T21:38:21.066Z,100.00
2023-05-04T21:41:16.497Z,100.00
2023-05-04T21:44:03.969Z,100.00
2023-05-04T21:46:52.153Z,100.00
2023-05-04T21:49:39.397Z,100.00
2023-05-04T21:52:26.923Z,100.00
2023-05-04T21:55:15.515Z,100.00
2023-05-04T21:58:02.816Z,100.00
2023-05-04T22:00:50.082Z,100.00
2023-05-04T22:03:37.444Z,100.00
2023-05-04T22:06:24.830Z,100.00
2023-05-04T22:09:13.638Z,100.00
2023-05-04T22:12:01.209Z,100.00
2023-05-04T22:14:48.454Z,100.00
2023-05-04T22:17:35.717Z,100.00
2023-05-04T22:20:23.693Z,100.00
2023-05-04T22:23:11.356Z,100.00
2023-05-04T22:25:58.758Z,100.00
2023-05-04T22:28:45.976Z,100.00
2023-05-04T22:31:33.218Z,100.00
2023-05-04T22:34:20.682Z,100.00
2023-05-04T22:37:07.957Z,100.00
2023-05-04T22:39:55.165Z,100.00
2023-05-04T22:42:45.128Z,100.00
2023-05-04T22:45:36.574Z,100.00
2023-05-04T22:48:23.963Z,100.00
2023-05-04T22:51:11.193Z,100.00
2023-05-04T22:53:58.555Z,100.00
2023-05-04T22:56:45.816Z,100.00
2023-05-04T22:59:33.144Z,100.00
2023-05-04T23:02:20.435Z,100.00
2023-05-04T23:05:09.261Z,100.00
2023-05-04T23:07:56.531Z,100.00
2023-05-04T23:10:47.202Z,100.00
2023-05-04T23:13:34.524Z,100.00
2023-05-04T23:16:22.325Z,100.00
2023-05-04T23:19:09.719Z,100.00
2023-05-04T23:21:59.941Z,100.00
2023-05-04T23:24:47.169Z,100.00
2023-05-04T23:27:34.500Z,100.00
2023-05-04T23:30:21.697Z,100.00
2023-05-04T23:33:08.992Z,100.00
2023-05-04T23:35:56.539Z,100.00
2023-05-04T23:38:43.773Z,100.00
2023-05-04T23:41:31.103Z,100.00
2023-05-04T23:44:18.399Z,100.00
2023-05-04T23:47:05.806Z,100.00
2023-05-04T23:49:53.040Z,100.00
2023-05-04T23:52:40.270Z,100.00
2023-05-04T23:55:27.687Z,100.00
2023-05-04T23:58:14.909Z,100.00
